createdAt,value
2023-03-26T00:02:15.401Z,512.00
2023-03-26T00:06:15.664Z,514.00
2023-03-26T00:10:15.869Z,511.00
2023-03-26T00:14:16.113Z,514.00
2023-03-26T00:18:16.351Z,512.00
2023-03-26T00:22:16.640Z,513.00
2023-03-26T00:26:16.828Z,515.00
2023-03-26T00:30:17.081Z,515.00
2023-03-26T00:34:17.340Z,514.00
2023-03-26T00:38:17.569Z,516.00
2023-03-26T00:42:17.830Z,511.00
2023-03-26T00:46:18.133Z,511.00
2023-03-26T00:50:18.338Z,517.00
2023-03-26T00:54:18.557Z,512.00
2023-03-26T00:58:18.827Z,513.00
2023-03-26T01:02:19.129Z,514.00
2023-03-26T01:06:19.334Z,510.00
2023-03-26T01:10:19.590Z,514.00
2023-03-26T01:14:19.839Z,512.00
2023-03-26T01:18:20.095Z,510.00
2023-03-26T01:22:20.357Z,511.00
2023-03-26T01:26:20.351Z,509.00
2023-03-26T01:30:20.375Z,509.00
2023-03-26T01:34:20.412Z,514.00
2023-03-26T01:38:20.410Z,500.00
2023-03-26T01:42:20.428Z,516.00
2023-03-26T01:46:20.481Z,513.00
2023-03-26T01:50:20.491Z,509.00
2023-03-26T01:54:20.507Z,510.00
2023-03-26T01:58:20.554Z,509.00
2023-03-26T02:02:20.614Z,511.00
2023-03-26T02:06:20.549Z,514.00
2023-03-26T02:10:20.653Z,514.00
2023-03-26T02:14:20.892Z,515.00
2023-03-26T02:18:21.142Z,507.00
2023-03-26T02:22:21.384Z,507.00
2023-03-26T02:26:21.641Z,510.00
2023-03-26T02:30:21.892Z,507.00
2023-03-26T02:34:22.160Z,511.00
2023-03-26T02:38:22.411Z,510.00
2023-03-26T02:42:22.683Z,510.00
2023-03-26T02:46:23.064Z,513.00
2023-03-26T02:50:23.184Z,507.00
2023-03-26T02:54:23.440Z,506.00
2023-03-26T02:58:23.792Z,509.00
2023-03-26T03:02:23.970Z,509.00
2023-03-26T03:06:24.225Z,511.00
2023-03-26T03:10:24.480Z,505.00
2023-03-26T03:14:24.728Z,509.00
2023-03-26T03:18:25.050Z,506.00
2023-03-26T03:22:25.230Z,509.00
2023-03-26T03:26:25.489Z,505.00
2023-03-26T03:30:25.754Z,506.00
2023-03-26T03:34:25.997Z,507.00
2023-03-26T03:38:26.254Z,507.00
2023-03-26T03:42:26.502Z,509.00
2023-03-26T03:46:27.149Z,504.00
2023-03-26T03:50:27.041Z,505.00
2023-03-26T03:54:27.319Z,511.00
2023-03-26T03:58:27.587Z,508.00
2023-03-26T04:02:27.930Z,512.00
2023-03-26T04:06:28.122Z,512.00
2023-03-26T04:10:28.151Z,510.00
2023-03-26T04:14:28.160Z,512.00
2023-03-26T04:18:28.165Z,502.00
2023-03-26T04:22:28.176Z,510.00
2023-03-26T04:26:28.214Z,506.00
2023-03-26T04:30:28.226Z,509.00
2023-03-26T04:34:28.242Z,509.00
2023-03-26T04:38:28.252Z,503.00
2023-03-26T04:42:28.248Z,511.00
2023-03-26T04:46:28.327Z,504.00
2023-03-26T04:50:28.263Z,505.00
2023-03-26T04:54:28.280Z,505.00
2023-03-26T04:58:28.284Z,507.00
2023-03-26T05:02:28.318Z,503.00
2023-03-26T05:06:28.282Z,508.00
2023-03-26T05:10:28.309Z,509.00
2023-03-26T05:14:28.318Z,505.00
2023-03-26T05:18:28.323Z,510.00
2023-03-26T05:22:28.333Z,510.00
2023-03-26T05:26:28.685Z,508.00
2023-03-26T05:30:28.409Z,504.00
2023-03-26T05:34:28.424Z,511.00
2023-03-26T05:38:28.444Z,511.00
2023-03-26T05:42:28.449Z,506.00
2023-03-26T05:50:28.503Z,513.00
2023-03-26T05:54:28.518Z,507.00
2023-03-26T05:58:28.534Z,506.00
2023-03-26T06:02:28.565Z,511.00
2023-03-26T06:06:28.584Z,508.00
2023-03-26T06:10:28.831Z,509.00
2023-03-26T06:14:29.078Z,506.00
2023-03-26T06:18:29.381Z,508.00
2023-03-26T06:22:29.686Z,512.00
2023-03-26T06:26:29.865Z,508.00
2023-03-26T13:54:50.372Z,520.00
2023-03-26T13:58:50.613Z,521.00
2023-03-26T14:02:50.892Z,521.00
2023-03-26T14:06:51.162Z,520.00
2023-03-26T14:10:51.434Z,521.00
2023-03-26T14:14:51.682Z,517.00
2023-03-26T14:18:51.955Z,524.00
2023-03-26T14:22:52.204Z,522.00
2023-03-26T14:26:52.453Z,520.00
2023-03-26T14:30:52.505Z,518.00
2023-03-26T14:34:52.475Z,523.00
2023-03-26T14:38:52.486Z,519.00
2023-03-26T14:42:53.953Z,523.00
2023-03-26T14:46:52.658Z,518.00
2023-03-26T14:50:52.686Z,525.00
2023-03-26T14:54:52.615Z,519.00
2023-03-26T14:58:52.634Z,531.00
2023-03-26T15:02:54.294Z,525.00
2023-03-26T15:06:52.661Z,523.00
2023-03-26T15:10:52.814Z,520.00
2023-03-26T15:14:52.954Z,522.00
2023-03-26T15:18:52.977Z,529.00
2023-03-26T15:22:52.992Z,521.00
2023-03-26T15:26:53.041Z,522.00
2023-03-26T15:30:53.299Z,521.00
2023-03-26T15:34:53.105Z,523.00
2023-03-26T15:38:53.139Z,525.00
2023-03-26T15:42:53.190Z,522.00
2023-03-26T15:46:53.236Z,521.00
2023-03-26T15:50:53.335Z,520.00
2023-03-26T15:54:53.310Z,525.00
2023-03-26T15:58:53.526Z,521.00
2023-03-26T16:02:53.697Z,522.00
2023-03-26T16:06:53.580Z,527.00
2023-03-26T16:10:53.764Z,525.00
2023-03-26T16:14:53.656Z,520.00
2023-03-26T16:18:53.692Z,520.00
2023-03-26T16:22:53.716Z,521.00
2023-03-26T16:26:53.748Z,521.00
2023-03-26T16:30:53.938Z,523.00
2023-03-26T16:34:53.842Z,525.00
2023-03-26T16:38:54.054Z,520.00
2023-03-26T16:42:54.093Z,524.00
2023-03-26T16:46:54.121Z,527.00
2023-03-26T16:50:54.311Z,524.00
2023-03-26T16:54:54.212Z,523.00
2023-03-26T16:58:54.239Z,522.00
2023-03-26T17:02:54.363Z,523.00
2023-03-26T17:06:54.362Z,529.00
2023-03-26T17:10:54.572Z,523.00
2023-03-26T17:14:54.507Z,524.00
2023-03-26T17:18:54.484Z,522.00
2023-03-26T17:22:54.519Z,526.00
2023-03-26T17:26:54.537Z,524.00
2023-03-26T17:30:54.761Z,523.00
2023-03-26T17:34:54.691Z,524.00
2023-03-26T17:38:54.636Z,525.00
2023-03-26T17:42:54.663Z,533.00
2023-03-26T17:46:54.686Z,526.00
2023-03-26T17:50:55.016Z,526.00
2023-03-26T17:54:54.760Z,532.00
2023-03-26T17:58:54.921Z,524.00
2023-03-26T18:02:55.138Z,527.00
2023-03-26T18:06:55.013Z,522.00
2023-03-26T18:10:55.190Z,522.00
2023-03-26T18:14:55.095Z,523.00
2023-03-26T18:18:55.119Z,523.00
2023-03-26T18:22:55.179Z,525.00
2023-03-26T18:26:55.220Z,526.00
2023-03-26T18:30:55.373Z,525.00
2023-03-26T18:34:55.264Z,524.00
2023-03-26T18:38:55.464Z,525.00
2023-03-26T18:42:55.721Z,526.00
2023-03-26T18:46:55.965Z,523.00
2023-03-26T18:50:56.344Z,525.00
2023-03-26T18:54:56.523Z,521.00
2023-03-26T18:58:56.553Z,526.00
2023-03-26T19:02:56.678Z,529.00
2023-03-26T19:06:56.622Z,526.00
2023-03-26T19:10:56.768Z,522.00
2023-03-26T19:14:56.686Z,528.00
2023-03-26T19:18:56.711Z,525.00
2023-03-26T19:22:56.740Z,523.00
2023-03-26T19:26:56.781Z,523.00
2023-03-26T19:30:56.998Z,527.00
2023-03-26T19:34:56.888Z,521.00
2023-03-26T19:38:57.140Z,526.00
2023-03-26T19:42:57.438Z,525.00
2023-03-26T19:46:57.741Z,526.00
2023-03-26T19:50:58.142Z,526.00
2023-03-26T19:55:00.143Z,522.00
2023-03-26T19:58:57.878Z,526.00
2023-03-26T20:02:57.949Z,525.00
2023-03-26T20:06:57.949Z,524.00
2023-03-26T20:10:58.819Z,516.00
2023-03-26T20:14:58.037Z,521.00
2023-03-26T20:18:58.082Z,519.00
2023-03-26T20:22:58.116Z,525.00
2023-03-26T20:26:58.172Z,524.00
2023-03-26T20:30:58.498Z,521.00
2023-03-26T20:34:58.480Z,525.00
2023-03-26T20:38:58.723Z,523.00
2023-03-26T20:42:59.008Z,525.00
2023-03-26T20:46:59.499Z,519.00
2023-03-26T20:50:59.313Z,521.00
2023-03-26T20:54:59.336Z,527.00
2023-03-26T21:02:59.459Z,525.00
2023-03-26T21:07:07.202Z,529.00
2023-03-26T21:11:00.490Z,531.00
2023-03-26T21:14:59.615Z,528.00
2023-03-26T21:18:59.734Z,527.00
2023-03-26T21:22:59.976Z,523.00
2023-03-26T21:27:00.219Z,528.00
2023-03-26T21:31:00.272Z,522.00
2023-03-26T21:35:00.348Z,521.00
2023-03-26T21:39:00.352Z,521.00
2023-03-26T21:43:00.380Z,522.00
2023-03-26T21:47:00.390Z,517.00
2023-03-26T21:51:00.443Z,524.00
2023-03-26T21:55:00.540Z,522.00
2023-03-26T21:59:00.527Z,524.00
2023-03-26T22:03:00.656Z,522.00
2023-03-26T22:07:00.580Z,525.00
2023-03-26T22:11:00.640Z,521.00
2023-03-26T22:15:01.015Z,522.00
2023-03-26T22:19:00.719Z,516.00
2023-03-26T22:23:00.764Z,523.00
2023-03-26T22:27:00.795Z,524.00
2023-03-26T22:31:00.821Z,522.00
2023-03-26T22:35:00.847Z,521.00
2023-03-26T22:39:00.893Z,519.00
2023-03-26T22:43:00.960Z,525.00
2023-03-26T22:47:00.938Z,523.00
2023-03-26T22:51:01.003Z,521.00
2023-03-26T22:55:01.020Z,520.00
2023-03-26T22:59:01.063Z,523.00
2023-03-26T23:03:01.201Z,521.00
2023-03-26T23:07:01.105Z,525.00
2023-03-26T23:11:01.117Z,521.00
2023-03-26T23:15:01.216Z,523.00
2023-03-26T23:19:01.169Z,521.00
2023-03-26T23:23:01.194Z,523.00
2023-03-26T23:27:01.197Z,518.00
2023-03-26T23:31:01.236Z,522.00
2023-03-26T23:35:01.249Z,516.00
2023-03-26T23:39:01.286Z,516.00
2023-03-26T23:43:01.297Z,521.00
2023-03-26T23:47:01.321Z,527.00
2023-03-26T23:51:04.101Z,517.00
2023-03-26T23:55:01.369Z,519.00
2023-03-26T23:59:01.408Z,522.00
